Accueil
METAR-TAF:

METAR-TAF

Aéroports :

Aéroport El Tari

Kupang, Indonésie

latitude: 10-10-17S, longitude: 123-40-16E, altitude: 102 m

Observation

Le bulletin a été fait il y a 44 minutes, à 14:00 UTC
Vent 6 kt de est/sud-est
Température 26°C
Humidité 84%
Pression 1015 hPa
Visibilité 10 km ou plus

METAR: WATT 121400Z AUTO 11006KT 9999 NCD 26/23 Q1015

Heure: 21:44 (14:44 UTC)

Prévision

Le bulletin a été fait il y a 3 heures et 44 minutes, à 11:00 UTC
Prévision valable du 12 à 12 UTC au 13 à 12 UTC
Vent 5 kt de est/sud-est
Visibilité 10 km ou plus
Nuages épars à une hauteur de 1800 ft
Temporairement
du 13 à 01 UTC au 13 à 04 UTC
Vent 15 kt de est/sud-est

TAF: WATT 121100Z 1212/1312 12005KT 9999 SCT018 TEMPO 1301/1304 12015KT

Observations et prévisions météorologiques de plus de 4000 aéroports (messages METAR et TAF).

Les stations disponibles sont représentées par des disques jaunes et rouges sur la carte.

Passer la souris dessus pour voir le nom de la station.

Cliquer dessus pour voir les observations et prévisions météorologiques.

Pour changer de carte: cliquez sur les boutons verts avec une croix noire pour zoomer, sur le bouton vert avec un tiret pour effectuer un zoom arrière, ou sur les flèches vertes pour les cartes adjacentes.


METAR-TAF: